sensor_id;sensor_type;location;lat;lon;timestamp;P1;durP1;ratioP1;P2;durP2;ratioP2
16979;SDS011;42288;52.182;21.156;2023-06-01T00:00:17;17.73;;;5.00;;
16979;SDS011;42288;52.182;21.156;2023-06-01T00:02:43;16.10;;;5.53;;
16979;SDS011;42288;52.182;21.156;2023-06-01T00:05:10;17.33;;;4.80;;
16979;SDS011;42288;52.182;21.156;2023-06-01T00:07:35;13.93;;;4.50;;
16979;SDS011;42288;52.182;21.156;2023-06-01T00:10:01;15.13;;;4.90;;
16979;SDS011;42288;52.182;21.156;2023-06-01T00:12:27;14.83;;;5.17;;
16979;SDS011;42288;52.182;21.156;2023-06-01T00:14:52;11.17;;;4.67;;
16979;SDS011;42288;52.182;21.156;2023-06-01T00:17:18;11.60;;;4.80;;
16979;SDS011;42288;52.182;21.156;2023-06-01T00:19:44;9.43;;;5.13;;
16979;SDS011;42288;52.182;21.156;2023-06-01T00:22:10;10.83;;;5.13;;
16979;SDS011;42288;52.182;21.156;2023-06-01T00:24:37;11.73;;;4.77;;
16979;SDS011;42288;52.182;21.156;2023-06-01T00:27:04;11.23;;;5.00;;
16979;SDS011;42288;52.182;21.156;2023-06-01T00:29:30;12.57;;;4.93;;
16979;SDS011;42288;52.182;21.156;2023-06-01T00:31:56;11.73;;;4.37;;
16979;SDS011;42288;52.182;21.156;2023-06-01T00:34:22;9.20;;;4.70;;
16979;SDS011;42288;52.182;21.156;2023-06-01T00:36:47;13.07;;;5.10;;
16979;SDS011;42288;52.182;21.156;2023-06-01T00:39:13;10.30;;;4.90;;
16979;SDS011;42288;52.182;21.156;2023-06-01T00:41:38;12.43;;;5.73;;
16979;SDS011;42288;52.182;21.156;2023-06-01T00:44:04;12.57;;;5.23;;
16979;SDS011;42288;52.182;21.156;2023-06-01T00:46:30;11.60;;;5.30;;
16979;SDS011;42288;52.182;21.156;2023-06-01T00:48:56;12.87;;;5.17;;
16979;SDS011;42288;52.182;21.156;2023-06-01T00:51:22;11.63;;;5.00;;
16979;SDS011;42288;52.182;21.156;2023-06-01T00:53:48;10.43;;;5.23;;
16979;SDS011;42288;52.182;21.156;2023-06-01T00:56:15;12.13;;;5.57;;
16979;SDS011;42288;52.182;21.156;2023-06-01T00:58:42;9.87;;;4.53;;
16979;SDS011;42288;52.182;21.156;2023-06-01T01:01:08;11.73;;;5.33;;
16979;SDS011;42288;52.182;21.156;2023-06-01T01:03:45;11.73;;;5.00;;
16979;SDS011;42288;52.182;21.156;2023-06-01T01:12:21;11.67;;;5.30;;
16979;SDS011;42288;52.182;21.156;2023-06-01T01:14:55;10.23;;;5.17;;
16979;SDS011;42288;52.182;21.156;2023-06-01T01:17:31;10.47;;;5.00;;
16979;SDS011;42288;52.182;21.156;2023-06-01T01:31:20;11.37;;;5.40;;
16979;SDS011;42288;52.182;21.156;2023-06-01T01:33:48;14.47;;;5.37;;
16979;SDS011;42288;52.182;21.156;2023-06-01T01:36:17;12.27;;;5.33;;
16979;SDS011;42288;52.182;21.156;2023-06-01T01:38:42;11.70;;;4.53;;
16979;SDS011;42288;52.182;21.156;2023-06-01T01:41:08;10.63;;;5.10;;
16979;SDS011;42288;52.182;21.156;2023-06-01T01:43:33;12.57;;;5.17;;
16979;SDS011;42288;52.182;21.156;2023-06-01T01:46:12;10.43;;;4.73;;
16979;SDS011;42288;52.182;21.156;2023-06-01T01:51:36;11.60;;;5.47;;
16979;SDS011;42288;52.182;21.156;2023-06-01T01:54:04;10.83;;;5.30;;
16979;SDS011;42288;52.182;21.156;2023-06-01T01:56:31;13.70;;;5.73;;
16979;SDS011;42288;52.182;21.156;2023-06-01T01:58:57;10.60;;;5.30;;
16979;SDS011;42288;52.182;21.156;2023-06-01T02:01:24;9.43;;;4.63;;
16979;SDS011;42288;52.182;21.156;2023-06-01T02:04:00;16.63;;;6.63;;
16979;SDS011;42288;52.182;21.156;2023-06-01T02:06:26;12.53;;;5.93;;
16979;SDS011;42288;52.182;21.156;2023-06-01T02:08:52;18.63;;;7.37;;
16979;SDS011;42288;52.182;21.156;2023-06-01T02:11:18;16.43;;;6.57;;
16979;SDS011;42288;52.182;21.156;2023-06-01T02:13:43;11.37;;;5.87;;
16979;SDS011;42288;52.182;21.156;2023-06-01T02:16:09;13.87;;;6.23;;
16979;SDS011;42288;52.182;21.156;2023-06-01T02:18:35;12.60;;;6.20;;
16979;SDS011;42288;52.182;21.156;2023-06-01T02:21:04;17.83;;;6.13;;
16979;SDS011;42288;52.182;21.156;2023-06-01T02:23:30;12.77;;;5.40;;
16979;SDS011;42288;52.182;21.156;2023-06-01T02:25:55;10.27;;;4.97;;
16979;SDS011;42288;52.182;21.156;2023-06-01T02:28:21;14.43;;;6.70;;
16979;SDS011;42288;52.182;21.156;2023-06-01T02:30:47;12.10;;;5.83;;
16979;SDS011;42288;52.182;21.156;2023-06-01T02:33:12;13.87;;;6.57;;
16979;SDS011;42288;52.182;21.156;2023-06-01T02:35:38;18.37;;;6.93;;
16979;SDS011;42288;52.182;21.156;2023-06-01T02:38:04;12.20;;;6.37;;
16979;SDS011;42288;52.182;21.156;2023-06-01T02:40:30;10.87;;;6.00;;
16979;SDS011;42288;52.182;21.156;2023-06-01T02:42:55;9.43;;;5.47;;
16979;SDS011;42288;52.182;21.156;2023-06-01T02:45:21;12.70;;;5.77;;
16979;SDS011;42288;52.182;21.156;2023-06-01T02:47:46;15.20;;;6.37;;
16979;SDS011;42288;52.182;21.156;2023-06-01T02:50:12;12.47;;;5.93;;
16979;SDS011;42288;52.182;21.156;2023-06-01T02:52:38;14.37;;;6.23;;
16979;SDS011;42288;52.182;21.156;2023-06-01T02:55:04;11.67;;;6.00;;
16979;SDS011;42288;52.182;21.156;2023-06-01T02:57:31;16.30;;;6.53;;
16979;SDS011;42288;52.182;21.156;2023-06-01T02:59:56;10.17;;;5.37;;
16979;SDS011;42288;52.182;21.156;2023-06-01T03:02:22;14.43;;;6.13;;
16979;SDS011;42288;52.182;21.156;2023-06-01T03:04:47;12.53;;;6.47;;
16979;SDS011;42288;52.182;21.156;2023-06-01T03:07:13;12.83;;;6.37;;
16979;SDS011;42288;52.182;21.156;2023-06-01T03:09:39;15.53;;;5.93;;
16979;SDS011;42288;52.182;21.156;2023-06-01T03:12:05;10.27;;;6.37;;
16979;SDS011;42288;52.182;21.156;2023-06-01T03:14:31;14.80;;;6.77;;
16979;SDS011;42288;52.182;21.156;2023-06-01T03:16:57;14.27;;;6.83;;
16979;SDS011;42288;52.182;21.156;2023-06-01T03:19:22;17.33;;;7.80;;
16979;SDS011;42288;52.182;21.156;2023-06-01T03:21:48;15.93;;;7.93;;
16979;SDS011;42288;52.182;21.156;2023-06-01T03:24:14;18.30;;;8.53;;
16979;SDS011;42288;52.182;21.156;2023-06-01T03:26:39;16.00;;;8.00;;
16979;SDS011;42288;52.182;21.156;2023-06-01T03:29:06;18.23;;;7.53;;
16979;SDS011;42288;52.182;21.156;2023-06-01T03:31:31;15.13;;;8.07;;
16979;SDS011;42288;52.182;21.156;2023-06-01T03:33:59;15.60;;;7.27;;
16979;SDS011;42288;52.182;21.156;2023-06-01T03:36:25;13.83;;;7.43;;
16979;SDS011;42288;52.182;21.156;2023-06-01T03:38:51;14.80;;;7.10;;
16979;SDS011;42288;52.182;21.156;2023-06-01T03:41:16;14.73;;;7.20;;
16979;SDS011;42288;52.182;21.156;2023-06-01T03:43:42;16.97;;;7.60;;
16979;SDS011;42288;52.182;21.156;2023-06-01T03:46:07;18.03;;;8.13;;
16979;SDS011;42288;52.182;21.156;2023-06-01T03:48:34;17.13;;;8.27;;
16979;SDS011;42288;52.182;21.156;2023-06-01T03:50:59;19.20;;;8.70;;
16979;SDS011;42288;52.182;21.156;2023-06-01T03:53:25;12.57;;;7.57;;
16979;SDS011;42288;52.182;21.156;2023-06-01T03:55:51;16.47;;;7.60;;
16979;SDS011;42288;52.182;21.156;2023-06-01T03:58:17;18.67;;;8.00;;
16979;SDS011;42288;52.182;21.156;2023-06-01T04:00:44;14.43;;;7.93;;
16979;SDS011;42288;52.182;21.156;2023-06-01T04:03:11;16.43;;;7.90;;
16979;SDS011;42288;52.182;21.156;2023-06-01T04:05:38;16.07;;;7.73;;
16979;SDS011;42288;52.182;21.156;2023-06-01T04:08:03;20.40;;;8.93;;
16979;SDS011;42288;52.182;21.156;2023-06-01T04:10:30;17.33;;;8.33;;
16979;SDS011;42288;52.182;21.156;2023-06-01T04:12:56;22.30;;;8.93;;
16979;SDS011;42288;52.182;21.156;2023-06-01T04:15:21;17.80;;;8.30;;
16979;SDS011;42288;52.182;21.156;2023-06-01T04:17:47;20.43;;;8.20;;
16979;SDS011;42288;52.182;21.156;2023-06-01T04:20:14;23.60;;;7.60;;
16979;SDS011;42288;52.182;21.156;2023-06-01T04:22:41;20.77;;;7.57;;
16979;SDS011;42288;52.182;21.156;2023-06-01T04:25:11;15.93;;;7.13;;
16979;SDS011;42288;52.182;21.156;2023-06-01T04:27:43;16.93;;;8.30;;
16979;SDS011;42288;52.182;21.156;2023-06-01T04:30:10;14.13;;;6.97;;
16979;SDS011;42288;52.182;21.156;2023-06-01T04:32:36;13.13;;;7.17;;
16979;SDS011;42288;52.182;21.156;2023-06-01T04:35:08;22.70;;;7.27;;
16979;SDS011;42288;52.182;21.156;2023-06-01T04:37:35;10.83;;;5.53;;
16979;SDS011;42288;52.182;21.156;2023-06-01T04:40:05;14.50;;;5.60;;
16979;SDS011;42288;52.182;21.156;2023-06-01T04:42:40;10.70;;;4.70;;
16979;SDS011;42288;52.182;21.156;2023-06-01T04:45:07;12.37;;;4.43;;
16979;SDS011;42288;52.182;21.156;2023-06-01T04:47:34;14.00;;;4.33;;
16979;SDS011;42288;52.182;21.156;2023-06-01T04:50:08;7.10;;;3.83;;
16979;SDS011;42288;52.182;21.156;2023-06-01T04:52:37;18.00;;;4.33;;
16979;SDS011;42288;52.182;21.156;2023-06-01T04:55:04;14.27;;;4.40;;
16979;SDS011;42288;52.182;21.156;2023-06-01T04:57:30;12.93;;;4.43;;
16979;SDS011;42288;52.182;21.156;2023-06-01T04:59:57;12.33;;;4.63;;
16979;SDS011;42288;52.182;21.156;2023-06-01T05:02:24;10.57;;;3.90;;
16979;SDS011;42288;52.182;21.156;2023-06-01T05:04:50;9.67;;;3.73;;
16979;SDS011;42288;52.182;21.156;2023-06-01T05:07:16;8.33;;;3.43;;
16979;SDS011;42288;52.182;21.156;2023-06-01T05:09:42;7.17;;;3.60;;
16979;SDS011;42288;52.182;21.156;2023-06-01T05:12:07;8.17;;;3.17;;
16979;SDS011;42288;52.182;21.156;2023-06-01T05:14:34;15.77;;;4.13;;
16979;SDS011;42288;52.182;21.156;2023-06-01T05:17:00;13.57;;;4.20;;
16979;SDS011;42288;52.182;21.156;2023-06-01T05:19:25;16.03;;;3.50;;
16979;SDS011;42288;52.182;21.156;2023-06-01T05:21:51;13.20;;;3.80;;
16979;SDS011;42288;52.182;21.156;2023-06-01T05:24:18;10.77;;;3.17;;
16979;SDS011;42288;52.182;21.156;2023-06-01T05:26:44;7.93;;;3.50;;
16979;SDS011;42288;52.182;21.156;2023-06-01T05:29:11;10.70;;;3.37;;
16979;SDS011;42288;52.182;21.156;2023-06-01T05:31:37;7.63;;;3.60;;
16979;SDS011;42288;52.182;21.156;2023-06-01T05:34:02;10.50;;;3.10;;
16979;SDS011;42288;52.182;21.156;2023-06-01T05:36:28;11.03;;;3.37;;
16979;SDS011;42288;52.182;21.156;2023-06-01T05:38:53;6.30;;;3.03;;
16979;SDS011;42288;52.182;21.156;2023-06-01T05:41:19;10.27;;;3.43;;
16979;SDS011;42288;52.182;21.156;2023-06-01T05:43:44;5.97;;;3.07;;
16979;SDS011;42288;52.182;21.156;2023-06-01T05:46:10;12.17;;;3.40;;
16979;SDS011;42288;52.182;21.156;2023-06-01T05:48:36;9.07;;;3.13;;
16979;SDS011;42288;52.182;21.156;2023-06-01T05:51:01;7.93;;;3.30;;
16979;SDS011;42288;52.182;21.156;2023-06-01T05:53:27;10.47;;;3.13;;
16979;SDS011;42288;52.182;21.156;2023-06-01T05:55:53;9.50;;;3.57;;
16979;SDS011;42288;52.182;21.156;2023-06-01T05:58:19;8.17;;;3.30;;
16979;SDS011;42288;52.182;21.156;2023-06-01T06:00:44;7.60;;;2.90;;
16979;SDS011;42288;52.182;21.156;2023-06-01T06:03:11;12.17;;;3.43;;
16979;SDS011;42288;52.182;21.156;2023-06-01T06:05:37;10.50;;;3.60;;
16979;SDS011;42288;52.182;21.156;2023-06-01T06:08:02;11.80;;;3.20;;
16979;SDS011;42288;52.182;21.156;2023-06-01T06:10:28;7.53;;;3.47;;
16979;SDS011;42288;52.182;21.156;2023-06-01T06:12:53;7.53;;;3.67;;
16979;SDS011;42288;52.182;21.156;2023-06-01T06:15:19;6.90;;;3.07;;
16979;SDS011;42288;52.182;21.156;2023-06-01T06:17:45;10.07;;;3.33;;
16979;SDS011;42288;52.182;21.156;2023-06-01T06:20:10;12.63;;;3.50;;
16979;SDS011;42288;52.182;21.156;2023-06-01T06:22:36;9.67;;;3.60;;
16979;SDS011;42288;52.182;21.156;2023-06-01T06:25:02;7.90;;;3.33;;
16979;SDS011;42288;52.182;21.156;2023-06-01T06:27:29;6.53;;;3.00;;
16979;SDS011;42288;52.182;21.156;2023-06-01T06:29:54;12.23;;;3.30;;
16979;SDS011;42288;52.182;21.156;2023-06-01T06:32:20;13.33;;;3.53;;
16979;SDS011;42288;52.182;21.156;2023-06-01T06:34:46;10.97;;;3.20;;
16979;SDS011;42288;52.182;21.156;2023-06-01T06:37:11;7.70;;;2.80;;
16979;SDS011;42288;52.182;21.156;2023-06-01T06:39:37;9.80;;;3.37;;
16979;SDS011;42288;52.182;21.156;2023-06-01T06:42:03;11.20;;;3.00;;
16979;SDS011;42288;52.182;21.156;2023-06-01T06:44:30;9.23;;;2.80;;
16979;SDS011;42288;52.182;21.156;2023-06-01T06:46:57;8.67;;;3.37;;
16979;SDS011;42288;52.182;21.156;2023-06-01T06:49:24;7.60;;;3.50;;
16979;SDS011;42288;52.182;21.156;2023-06-01T06:51:49;11.37;;;3.00;;
16979;SDS011;42288;52.182;21.156;2023-06-01T06:54:15;13.67;;;2.90;;
16979;SDS011;42288;52.182;21.156;2023-06-01T06:56:40;7.10;;;2.83;;
16979;SDS011;42288;52.182;21.156;2023-06-01T06:59:06;10.57;;;2.80;;
16979;SDS011;42288;52.182;21.156;2023-06-01T07:01:33;7.53;;;2.73;;
16979;SDS011;42288;52.182;21.156;2023-06-01T07:04:03;6.80;;;2.73;;
16979;SDS011;42288;52.182;21.156;2023-06-01T07:06:30;9.13;;;3.03;;
16979;SDS011;42288;52.182;21.156;2023-06-01T07:08:57;9.10;;;2.83;;
16979;SDS011;42288;52.182;21.156;2023-06-01T07:11:23;8.37;;;3.10;;
16979;SDS011;42288;52.182;21.156;2023-06-01T07:13:51;3.90;;;2.47;;
16979;SDS011;42288;52.182;21.156;2023-06-01T07:16:17;12.10;;;3.10;;
16979;SDS011;42288;52.182;21.156;2023-06-01T07:18:43;9.07;;;2.78;;
16979;SDS011;42288;52.182;21.156;2023-06-01T07:21:08;7.70;;;2.77;;
16979;SDS011;42288;52.182;21.156;2023-06-01T07:23:34;6.33;;;2.77;;
16979;SDS011;42288;52.182;21.156;2023-06-01T07:26:00;6.90;;;2.87;;
16979;SDS011;42288;52.182;21.156;2023-06-01T07:28:26;9.40;;;2.80;;
16979;SDS011;42288;52.182;21.156;2023-06-01T07:30:54;7.27;;;2.60;;
16979;SDS011;42288;52.182;21.156;2023-06-01T07:33:20;8.63;;;2.72;;
16979;SDS011;42288;52.182;21.156;2023-06-01T07:35:47;5.95;;;2.33;;
16979;SDS011;42288;52.182;21.156;2023-06-01T07:38:17;4.10;;;2.20;;
16979;SDS011;42288;52.182;21.156;2023-06-01T07:40:44;6.13;;;2.20;;
16979;SDS011;42288;52.182;21.156;2023-06-01T07:43:10;6.90;;;2.80;;
16979;SDS011;42288;52.182;21.156;2023-06-01T07:45:36;6.40;;;2.10;;
16979;SDS011;42288;52.182;21.156;2023-06-01T07:48:02;8.75;;;2.53;;
16979;SDS011;42288;52.182;21.156;2023-06-01T07:50:27;4.43;;;2.40;;
16979;SDS011;42288;52.182;21.156;2023-06-01T07:52:56;9.05;;;2.47;;
16979;SDS011;42288;52.182;21.156;2023-06-01T07:55:22;7.78;;;2.38;;
16979;SDS011;42288;52.182;21.156;2023-06-01T07:57:48;5.83;;;2.33;;
16979;SDS011;42288;52.182;21.156;2023-06-01T08:00:14;8.35;;;2.40;;
16979;SDS011;42288;52.182;21.156;2023-06-01T08:02:42;5.38;;;2.15;;
16979;SDS011;42288;52.182;21.156;2023-06-01T08:05:08;11.50;;;2.40;;
16979;SDS011;42288;52.182;21.156;2023-06-01T08:07:35;5.32;;;2.42;;
16979;SDS011;42288;52.182;21.156;2023-06-01T08:10:03;6.53;;;2.50;;
16979;SDS011;42288;52.182;21.156;2023-06-01T08:12:33;11.77;;;2.85;;
16979;SDS011;42288;52.182;21.156;2023-06-01T08:15:00;6.30;;;2.75;;
16979;SDS011;42288;52.182;21.156;2023-06-01T08:17:26;4.90;;;2.10;;
16979;SDS011;42288;52.182;21.156;2023-06-01T08:19:52;10.50;;;2.67;;
16979;SDS011;42288;52.182;21.156;2023-06-01T08:22:19;5.85;;;2.13;;
16979;SDS011;42288;52.182;21.156;2023-06-01T08:24:45;10.48;;;2.80;;
16979;SDS011;42288;52.182;21.156;2023-06-01T08:27:30;5.05;;;2.25;;
16979;SDS011;42288;52.182;21.156;2023-06-01T08:29:56;6.15;;;2.40;;
16979;SDS011;42288;52.182;21.156;2023-06-01T08:32:21;5.50;;;1.70;;
16979;SDS011;42288;52.182;21.156;2023-06-01T08:34:47;6.32;;;2.20;;
16979;SDS011;42288;52.182;21.156;2023-06-01T08:37:13;4.03;;;2.10;;
16979;SDS011;42288;52.182;21.156;2023-06-01T08:39:39;8.20;;;2.45;;
16979;SDS011;42288;52.182;21.156;2023-06-01T08:44:41;7.72;;;2.50;;
16979;SDS011;42288;52.182;21.156;2023-06-01T08:47:07;3.50;;;2.00;;
16979;SDS011;42288;52.182;21.156;2023-06-01T08:49:34;4.88;;;2.13;;
16979;SDS011;42288;52.182;21.156;2023-06-01T08:52:06;9.13;;;2.20;;
16979;SDS011;42288;52.182;21.156;2023-06-01T08:54:35;4.82;;;2.22;;
16979;SDS011;42288;52.182;21.156;2023-06-01T08:57:06;6.25;;;2.10;;
16979;SDS011;42288;52.182;21.156;2023-06-01T08:59:35;4.63;;;2.22;;
16979;SDS011;42288;52.182;21.156;2023-06-01T09:02:01;8.85;;;2.28;;
16979;SDS011;42288;52.182;21.156;2023-06-01T09:04:27;7.00;;;2.42;;
16979;SDS011;42288;52.182;21.156;2023-06-01T09:06:56;6.43;;;2.42;;
16979;SDS011;42288;52.182;21.156;2023-06-01T09:09:21;4.90;;;2.60;;
16979;SDS011;42288;52.182;21.156;2023-06-01T09:11:47;6.70;;;2.47;;
16979;SDS011;42288;52.182;21.156;2023-06-01T09:14:20;9.55;;;2.88;;
16979;SDS011;42288;52.182;21.156;2023-06-01T09:16:46;3.45;;;2.10;;
16979;SDS011;42288;52.182;21.156;2023-06-01T09:19:12;11.10;;;2.78;;
16979;SDS011;42288;52.182;21.156;2023-06-01T09:21:38;12.25;;;2.47;;
16979;SDS011;42288;52.182;21.156;2023-06-01T09:24:17;4.80;;;2.30;;
16979;SDS011;42288;52.182;21.156;2023-06-01T09:26:47;8.93;;;2.83;;
16979;SDS011;42288;52.182;21.156;2023-06-01T09:29:13;7.57;;;2.63;;
16979;SDS011;42288;52.182;21.156;2023-06-01T09:34:18;9.70;;;2.70;;
16979;SDS011;42288;52.182;21.156;2023-06-01T09:36:45;10.57;;;3.30;;
16979;SDS011;42288;52.182;21.156;2023-06-01T09:39:12;4.85;;;2.47;;
16979;SDS011;42288;52.182;21.156;2023-06-01T09:41:46;7.43;;;2.95;;
16979;SDS011;42288;52.182;21.156;2023-06-01T09:44:23;7.38;;;3.58;;
16979;SDS011;42288;52.182;21.156;2023-06-01T09:46:56;8.00;;;2.88;;
16979;SDS011;42288;52.182;21.156;2023-06-01T09:49:27;6.13;;;2.50;;
16979;SDS011;42288;52.182;21.156;2023-06-01T09:54:35;7.32;;;2.47;;
16979;SDS011;42288;52.182;21.156;2023-06-01T09:57:13;6.05;;;2.83;;
16979;SDS011;42288;52.182;21.156;2023-06-01T09:59:46;8.65;;;3.30;;
16979;SDS011;42288;52.182;21.156;2023-06-01T10:02:12;3.97;;;2.28;;
16979;SDS011;42288;52.182;21.156;2023-06-01T10:04:41;5.70;;;2.70;;
16979;SDS011;42288;52.182;21.156;2023-06-01T10:07:13;6.07;;;2.75;;
16979;SDS011;42288;52.182;21.156;2023-06-01T10:09:39;8.57;;;2.90;;
16979;SDS011;42288;52.182;21.156;2023-06-01T10:12:08;7.03;;;2.70;;
16979;SDS011;42288;52.182;21.156;2023-06-01T10:14:35;8.88;;;2.88;;
16979;SDS011;42288;52.182;21.156;2023-06-01T10:17:03;12.70;;;3.13;;
16979;SDS011;42288;52.182;21.156;2023-06-01T10:19:29;7.82;;;3.10;;
16979;SDS011;42288;52.182;21.156;2023-06-01T10:21:58;6.38;;;2.53;;
16979;SDS011;42288;52.182;21.156;2023-06-01T10:24:25;6.63;;;2.53;;
16979;SDS011;42288;52.182;21.156;2023-06-01T10:27:05;9.02;;;3.28;;
16979;SDS011;42288;52.182;21.156;2023-06-01T10:29:47;5.43;;;2.33;;
16979;SDS011;42288;52.182;21.156;2023-06-01T10:40:39;7.00;;;2.53;;
16979;SDS011;42288;52.182;21.156;2023-06-01T10:46:02;8.35;;;2.80;;
16979;SDS011;42288;52.182;21.156;2023-06-01T10:51:20;5.60;;;2.38;;
16979;SDS011;42288;52.182;21.156;2023-06-01T10:53:46;14.35;;;3.17;;
16979;SDS011;42288;52.182;21.156;2023-06-01T10:56:22;15.45;;;2.75;;
16979;SDS011;42288;52.182;21.156;2023-06-01T11:01:33;6.13;;;2.40;;
16979;SDS011;42288;52.182;21.156;2023-06-01T11:04:05;4.65;;;2.00;;
16979;SDS011;42288;52.182;21.156;2023-06-01T11:06:41;5.95;;;2.05;;
16979;SDS011;42288;52.182;21.156;2023-06-01T11:09:08;6.70;;;2.10;;
16979;SDS011;42288;52.182;21.156;2023-06-01T11:14:17;14.50;;;2.67;;
16979;SDS011;42288;52.182;21.156;2023-06-01T11:16:44;3.63;;;2.10;;
16979;SDS011;42288;52.182;21.156;2023-06-01T11:19:10;3.70;;;1.80;;
16979;SDS011;42288;52.182;21.156;2023-06-01T11:21:42;6.20;;;2.40;;
16979;SDS011;42288;52.182;21.156;2023-06-01T11:24:15;3.20;;;2.10;;
16979;SDS011;42288;52.182;21.156;2023-06-01T11:26:43;6.47;;;2.40;;
16979;SDS011;42288;52.182;21.156;2023-06-01T11:29:17;4.82;;;2.42;;
16979;SDS011;42288;52.182;21.156;2023-06-01T11:31:45;5.03;;;2.50;;
16979;SDS011;42288;52.182;21.156;2023-06-01T11:34:13;14.82;;;2.67;;
16979;SDS011;42288;52.182;21.156;2023-06-01T11:36:42;8.48;;;2.67;;
16979;SDS011;42288;52.182;21.156;2023-06-01T11:39:19;4.38;;;2.13;;
16979;SDS011;42288;52.182;21.156;2023-06-01T11:41:49;5.43;;;2.10;;
16979;SDS011;42288;52.182;21.156;2023-06-01T11:44:17;8.05;;;2.70;;
16979;SDS011;42288;52.182;21.156;2023-06-01T11:46:50;4.15;;;2.55;;
16979;SDS011;42288;52.182;21.156;2023-06-01T11:49:17;4.78;;;2.50;;
16979;SDS011;42288;52.182;21.156;2023-06-01T11:51:42;7.07;;;2.70;;
16979;SDS011;42288;52.182;21.156;2023-06-01T11:54:08;4.82;;;2.60;;
16979;SDS011;42288;52.182;21.156;2023-06-01T11:56:34;3.55;;;2.40;;
16979;SDS011;42288;52.182;21.156;2023-06-01T11:59:01;11.60;;;2.60;;
16979;SDS011;42288;52.182;21.156;2023-06-01T12:01:33;6.00;;;2.20;;
16979;SDS011;42288;52.182;21.156;2023-06-01T12:04:00;4.78;;;2.30;;
16979;SDS011;42288;52.182;21.156;2023-06-01T12:06:27;4.65;;;2.40;;
16979;SDS011;42288;52.182;21.156;2023-06-01T12:08:54;4.10;;;2.45;;
16979;SDS011;42288;52.182;21.156;2023-06-01T12:11:24;4.32;;;2.20;;
16979;SDS011;42288;52.182;21.156;2023-06-01T12:13:54;5.80;;;2.35;;
16979;SDS011;42288;52.182;21.156;2023-06-01T12:16:20;10.75;;;3.00;;
16979;SDS011;42288;52.182;21.156;2023-06-01T12:18:50;10.82;;;2.65;;
16979;SDS011;42288;52.182;21.156;2023-06-01T12:21:16;5.32;;;2.33;;
16979;SDS011;42288;52.182;21.156;2023-06-01T12:23:43;6.00;;;2.47;;
16979;SDS011;42288;52.182;21.156;2023-06-01T12:26:16;6.60;;;2.53;;
16979;SDS011;42288;52.182;21.156;2023-06-01T12:28:51;16.73;;;2.90;;
16979;SDS011;42288;52.182;21.156;2023-06-01T12:31:19;12.20;;;2.50;;
16979;SDS011;42288;52.182;21.156;2023-06-01T12:33:45;5.53;;;2.00;;
16979;SDS011;42288;52.182;21.156;2023-06-01T12:39:01;23.70;;;2.40;;
16979;SDS011;42288;52.182;21.156;2023-06-01T12:41:29;5.57;;;2.47;;
16979;SDS011;42288;52.182;21.156;2023-06-01T12:43:56;9.80;;;2.45;;
16979;SDS011;42288;52.182;21.156;2023-06-01T12:46:23;10.82;;;2.63;;
16979;SDS011;42288;52.182;21.156;2023-06-01T12:48:53;5.18;;;2.42;;
16979;SDS011;42288;52.182;21.156;2023-06-01T12:51:35;10.15;;;2.95;;
16979;SDS011;42288;52.182;21.156;2023-06-01T12:54:01;4.60;;;2.45;;
16979;SDS011;42288;52.182;21.156;2023-06-01T12:56:27;11.60;;;2.33;;
16979;SDS011;42288;52.182;21.156;2023-06-01T12:58:53;7.05;;;2.72;;
16979;SDS011;42288;52.182;21.156;2023-06-01T13:01:19;8.00;;;2.60;;
16979;SDS011;42288;52.182;21.156;2023-06-01T13:03:45;6.53;;;2.70;;
16979;SDS011;42288;52.182;21.156;2023-06-01T13:06:11;4.38;;;2.15;;
16979;SDS011;42288;52.182;21.156;2023-06-01T13:08:37;7.47;;;2.35;;
16979;SDS011;42288;52.182;21.156;2023-06-01T13:11:03;5.03;;;2.42;;
16979;SDS011;42288;52.182;21.156;2023-06-01T13:13:28;8.00;;;2.47;;
16979;SDS011;42288;52.182;21.156;2023-06-01T13:15:55;6.78;;;2.38;;
16979;SDS011;42288;52.182;21.156;2023-06-01T13:18:20;8.30;;;2.13;;
16979;SDS011;42288;52.182;21.156;2023-06-01T13:20:46;4.90;;;2.15;;
16979;SDS011;42288;52.182;21.156;2023-06-01T13:23:12;7.90;;;2.30;;
16979;SDS011;42288;52.182;21.156;2023-06-01T13:25:38;3.83;;;2.30;;
16979;SDS011;42288;52.182;21.156;2023-06-01T13:28:05;11.10;;;2.78;;
16979;SDS011;42288;52.182;21.156;2023-06-01T13:30:32;3.35;;;2.30;;
16979;SDS011;42288;52.182;21.156;2023-06-01T13:32:59;3.92;;;2.40;;
16979;SDS011;42288;52.182;21.156;2023-06-01T13:35:24;9.05;;;3.08;;
16979;SDS011;42288;52.182;21.156;2023-06-01T13:37:50;11.02;;;2.25;;
16979;SDS011;42288;52.182;21.156;2023-06-01T13:40:16;8.32;;;2.60;;
16979;SDS011;42288;52.182;21.156;2023-06-01T13:42:49;11.00;;;2.60;;
16979;SDS011;42288;52.182;21.156;2023-06-01T13:45:15;11.00;;;2.70;;
16979;SDS011;42288;52.182;21.156;2023-06-01T13:47:42;5.97;;;2.42;;
16979;SDS011;42288;52.182;21.156;2023-06-01T13:50:07;12.73;;;2.85;;
16979;SDS011;42288;52.182;21.156;2023-06-01T13:52:33;4.95;;;2.55;;
16979;SDS011;42288;52.182;21.156;2023-06-01T13:54:59;11.57;;;2.67;;
16979;SDS011;42288;52.182;21.156;2023-06-01T13:57:24;5.50;;;2.40;;
16979;SDS011;42288;52.182;21.156;2023-06-01T13:59:50;5.70;;;2.95;;
16979;SDS011;42288;52.182;21.156;2023-06-01T14:02:16;10.18;;;2.60;;
16979;SDS011;42288;52.182;21.156;2023-06-01T14:04:41;9.75;;;2.17;;
16979;SDS011;42288;52.182;21.156;2023-06-01T14:07:07;9.88;;;2.60;;
16979;SDS011;42288;52.182;21.156;2023-06-01T14:09:33;5.40;;;2.40;;
16979;SDS011;42288;52.182;21.156;2023-06-01T14:11:58;4.05;;;2.25;;
16979;SDS011;42288;52.182;21.156;2023-06-01T14:14:24;8.82;;;2.70;;
16979;SDS011;42288;52.182;21.156;2023-06-01T14:16:50;8.27;;;2.53;;
16979;SDS011;42288;52.182;21.156;2023-06-01T14:19:15;5.22;;;2.28;;
16979;SDS011;42288;52.182;21.156;2023-06-01T14:21:41;3.97;;;2.47;;
16979;SDS011;42288;52.182;21.156;2023-06-01T14:24:06;7.03;;;2.35;;
16979;SDS011;42288;52.182;21.156;2023-06-01T14:26:32;9.00;;;2.53;;
16979;SDS011;42288;52.182;21.156;2023-06-01T14:28:57;7.90;;;2.28;;
16979;SDS011;42288;52.182;21.156;2023-06-01T14:31:23;5.50;;;2.10;;
16979;SDS011;42288;52.182;21.156;2023-06-01T14:33:49;7.68;;;2.22;;
16979;SDS011;42288;52.182;21.156;2023-06-01T14:36:14;7.88;;;2.22;;
16979;SDS011;42288;52.182;21.156;2023-06-01T14:38:40;5.65;;;2.45;;
16979;SDS011;42288;52.182;21.156;2023-06-01T14:41:06;7.65;;;2.13;;
16979;SDS011;42288;52.182;21.156;2023-06-01T14:43:32;8.52;;;2.47;;
16979;SDS011;42288;52.182;21.156;2023-06-01T14:45:58;6.55;;;2.50;;
16979;SDS011;42288;52.182;21.156;2023-06-01T14:48:24;7.00;;;2.25;;
16979;SDS011;42288;52.182;21.156;2023-06-01T14:50:50;8.77;;;2.17;;
16979;SDS011;42288;52.182;21.156;2023-06-01T14:53:16;3.90;;;2.08;;
16979;SDS011;42288;52.182;21.156;2023-06-01T14:55:42;8.20;;;2.35;;
16979;SDS011;42288;52.182;21.156;2023-06-01T14:58:09;6.47;;;2.38;;
16979;SDS011;42288;52.182;21.156;2023-06-01T15:00:35;5.10;;;2.20;;
16979;SDS011;42288;52.182;21.156;2023-06-01T15:03:01;15.35;;;3.05;;
16979;SDS011;42288;52.182;21.156;2023-06-01T15:05:28;4.47;;;2.20;;
16979;SDS011;42288;52.182;21.156;2023-06-01T15:07:53;5.75;;;2.38;;
16979;SDS011;42288;52.182;21.156;2023-06-01T15:10:19;4.35;;;2.22;;
16979;SDS011;42288;52.182;21.156;2023-06-01T15:12:45;10.65;;;2.45;;
16979;SDS011;42288;52.182;21.156;2023-06-01T15:15:10;9.50;;;2.28;;
16979;SDS011;42288;52.182;21.156;2023-06-01T15:17:37;7.97;;;2.63;;